Nearby METAR Reports

 

ENRY - Rygge (nor-Afb), Norway
Distance from station: 0 24km
Updated: 19/08/2018 23:20
Clear
Clear
 Wind from S
Wind: S 7 km/h
Temperature: 14°C
Dew Point: 12°C
Humidity: 88%
Barometer: 1010 hPa
Clouds: Clear
Visibility: 16 miles
2018/08/19 21:20 ENRY 192120Z AUTO 18004KT 9999NDV NCD 14/12 Q1010
ENTO - Torp (civ/Nor-Af, Norway
Distance from station: W 29km
Updated: 19/08/2018 23:20
Clear
Clear
 Wind from SSW
Wind: SSW 9 km/h
Temperature: 14°C
Dew Point: 13°C
Humidity: 94%
Barometer: 1010 hPa
Summary: Clear
Visibility: greater than 10 km
2018/08/19 21:20 ENTO 192120Z 21005KT CAVOK 14/13 Q1010
 
ENSN - Skien/Geiterygge, Norway
Distance from station: W 68km
Updated: 09/11/2015 09:50
NOT Current
Clear
Clear
 Wind from SSW
Wind: SSW 19 km/h, Gust: 41 km/h
Temperature: 7°C
Wind Chill: 4°C
Dew Point: 3°C
Humidity: 76%
Barometer: 1000 hPa
Summary: Clear
Visibility: greater than 10 km
2015/11/09 08:50 ENSN 090850Z 20010G22KT 150V240 CAVOK 07/03 Q1000